sensor_id;sensor_type;location;lat;lon;timestamp;P1;durP1;ratioP1;P2;durP2;ratioP2
7813;SDS011;3952;48.364;16.022;2023-04-15T00:00:26;7.80;;;7.30;;
7813;SDS011;3952;48.364;16.022;2023-04-15T00:02:54;8.27;;;7.67;;
7813;SDS011;3952;48.364;16.022;2023-04-15T00:05:23;9.07;;;8.47;;
7813;SDS011;3952;48.364;16.022;2023-04-15T00:07:50;9.30;;;8.63;;
7813;SDS011;3952;48.364;16.022;2023-04-15T00:10:18;8.27;;;7.67;;
7813;SDS011;3952;48.364;16.022;2023-04-15T00:12:45;8.43;;;7.83;;
7813;SDS011;3952;48.364;16.022;2023-04-15T00:15:12;9.67;;;8.90;;
7813;SDS011;3952;48.364;16.022;2023-04-15T00:17:39;9.93;;;9.23;;
7813;SDS011;3952;48.364;16.022;2023-04-15T00:20:07;9.33;;;8.57;;
7813;SDS011;3952;48.364;16.022;2023-04-15T00:22:36;9.70;;;9.00;;
7813;SDS011;3952;48.364;16.022;2023-04-15T00:25:04;9.37;;;8.67;;
7813;SDS011;3952;48.364;16.022;2023-04-15T00:27:31;9.07;;;8.37;;
7813;SDS011;3952;48.364;16.022;2023-04-15T00:29:58;9.20;;;8.40;;
7813;SDS011;3952;48.364;16.022;2023-04-15T00:32:26;8.90;;;8.20;;
7813;SDS011;3952;48.364;16.022;2023-04-15T00:34:54;8.20;;;7.60;;
7813;SDS011;3952;48.364;16.022;2023-04-15T00:37:21;8.47;;;7.70;;
7813;SDS011;3952;48.364;16.022;2023-04-15T00:39:50;7.37;;;6.83;;
7813;SDS011;3952;48.364;16.022;2023-04-15T00:42:17;4.10;;;3.80;;
7813;SDS011;3952;48.364;16.022;2023-04-15T00:44:46;2.60;;;2.43;;
7813;SDS011;3952;48.364;16.022;2023-04-15T00:47:13;1.70;;;1.60;;
7813;SDS011;3952;48.364;16.022;2023-04-15T00:49:41;1.20;;;1.20;;
7813;SDS011;3952;48.364;16.022;2023-04-15T00:52:08;0.90;;;0.90;;
7813;SDS011;3952;48.364;16.022;2023-04-15T00:54:36;0.47;;;0.47;;
7813;SDS011;3952;48.364;16.022;2023-04-15T00:57:05;0.53;;;0.53;;
7813;SDS011;3952;48.364;16.022;2023-04-15T00:59:34;0.30;;;0.30;;
7813;SDS011;3952;48.364;16.022;2023-04-15T01:02:02;0.50;;;0.50;;
7813;SDS011;3952;48.364;16.022;2023-04-15T01:04:30;0.40;;;0.40;;
7813;SDS011;3952;48.364;16.022;2023-04-15T01:06:59;0.97;;;0.50;;
7813;SDS011;3952;48.364;16.022;2023-04-15T01:09:26;0.20;;;0.20;;
7813;SDS011;3952;48.364;16.022;2023-04-15T01:11:54;0.53;;;0.53;;
7813;SDS011;3952;48.364;16.022;2023-04-15T01:14:23;0.50;;;0.50;;
7813;SDS011;3952;48.364;16.022;2023-04-15T01:16:51;0.53;;;0.43;;
7813;SDS011;3952;48.364;16.022;2023-04-15T01:19:22;0.40;;;0.40;;
7813;SDS011;3952;48.364;16.022;2023-04-15T01:21:49;0.40;;;0.40;;
7813;SDS011;3952;48.364;16.022;2023-04-15T01:24:17;0.30;;;0.30;;
7813;SDS011;3952;48.364;16.022;2023-04-15T01:26:46;0.40;;;0.40;;
7813;SDS011;3952;48.364;16.022;2023-04-15T01:29:14;0.20;;;0.20;;
7813;SDS011;3952;48.364;16.022;2023-04-15T01:31:48;0.40;;;0.40;;
7813;SDS011;3952;48.364;16.022;2023-04-15T01:34:19;0.40;;;0.20;;
7813;SDS011;3952;48.364;16.022;2023-04-15T01:36:46;0.27;;;0.20;;
7813;SDS011;3952;48.364;16.022;2023-04-15T01:39:14;0.53;;;0.53;;
7813;SDS011;3952;48.364;16.022;2023-04-15T01:41:44;0.20;;;0.20;;
7813;SDS011;3952;48.364;16.022;2023-04-15T01:44:15;0.40;;;0.40;;
7813;SDS011;3952;48.364;16.022;2023-04-15T01:46:43;0.50;;;0.30;;
7813;SDS011;3952;48.364;16.022;2023-04-15T01:49:10;0.30;;;0.30;;
7813;SDS011;3952;48.364;16.022;2023-04-15T01:51:41;0.20;;;0.20;;
7813;SDS011;3952;48.364;16.022;2023-04-15T01:54:08;0.20;;;0.20;;
7813;SDS011;3952;48.364;16.022;2023-04-15T01:56:36;0.20;;;0.20;;
7813;SDS011;3952;48.364;16.022;2023-04-15T01:59:04;1.13;;;0.27;;
7813;SDS011;3952;48.364;16.022;2023-04-15T02:01:33;0.30;;;0.30;;
7813;SDS011;3952;48.364;16.022;2023-04-15T02:04:00;0.10;;;0.10;;
7813;SDS011;3952;48.364;16.022;2023-04-15T02:06:27;0.20;;;0.20;;
7813;SDS011;3952;48.364;16.022;2023-04-15T02:08:54;0.10;;;0.10;;
7813;SDS011;3952;48.364;16.022;2023-04-15T02:11:23;0.10;;;0.10;;
7813;SDS011;3952;48.364;16.022;2023-04-15T02:13:52;0.20;;;0.20;;
7813;SDS011;3952;48.364;16.022;2023-04-15T02:16:19;0.10;;;0.10;;
7813;SDS011;3952;48.364;16.022;2023-04-15T02:19:00;0.40;;;0.40;;
7813;SDS011;3952;48.364;16.022;2023-04-15T02:21:28;0.27;;;0.27;;
7813;SDS011;3952;48.364;16.022;2023-04-15T02:23:59;1.03;;;0.30;;
7813;SDS011;3952;48.364;16.022;2023-04-15T02:26:27;0.10;;;0.10;;
7813;SDS011;3952;48.364;16.022;2023-04-15T02:28:56;0.20;;;0.20;;
7813;SDS011;3952;48.364;16.022;2023-04-15T02:31:40;0.17;;;0.17;;
7813;SDS011;3952;48.364;16.022;2023-04-15T02:34:11;0.30;;;0.30;;
7813;SDS011;3952;48.364;16.022;2023-04-15T02:36:44;0.37;;;0.37;;
7813;SDS011;3952;48.364;16.022;2023-04-15T02:39:13;0.10;;;0.10;;
7813;SDS011;3952;48.364;16.022;2023-04-15T02:41:42;0.10;;;0.10;;
7813;SDS011;3952;48.364;16.022;2023-04-15T02:44:11;0.23;;;0.20;;
7813;SDS011;3952;48.364;16.022;2023-04-15T02:46:39;0.10;;;0.10;;
7813;SDS011;3952;48.364;16.022;2023-04-15T02:49:12;0.20;;;0.20;;
7813;SDS011;3952;48.364;16.022;2023-04-15T02:51:41;0.10;;;0.10;;
7813;SDS011;3952;48.364;16.022;2023-04-15T02:54:08;0.10;;;0.10;;
7813;SDS011;3952;48.364;16.022;2023-04-15T02:56:35;0.17;;;0.17;;
7813;SDS011;3952;48.364;16.022;2023-04-15T02:59:05;0.30;;;0.30;;
7813;SDS011;3952;48.364;16.022;2023-04-15T03:01:32;0.27;;;0.27;;
7813;SDS011;3952;48.364;16.022;2023-04-15T03:04:00;0.30;;;0.30;;
7813;SDS011;3952;48.364;16.022;2023-04-15T03:06:28;0.30;;;0.30;;
7813;SDS011;3952;48.364;16.022;2023-04-15T03:08:56;0.27;;;0.23;;
7813;SDS011;3952;48.364;16.022;2023-04-15T03:11:24;0.40;;;0.40;;
7813;SDS011;3952;48.364;16.022;2023-04-15T03:13:52;0.40;;;0.40;;
7813;SDS011;3952;48.364;16.022;2023-04-15T03:16:19;0.20;;;0.20;;
7813;SDS011;3952;48.364;16.022;2023-04-15T03:18:46;0.40;;;0.40;;
7813;SDS011;3952;48.364;16.022;2023-04-15T03:21:13;1.27;;;0.60;;
7813;SDS011;3952;48.364;16.022;2023-04-15T03:23:42;0.60;;;0.60;;
7813;SDS011;3952;48.364;16.022;2023-04-15T03:26:11;1.20;;;0.60;;
7813;SDS011;3952;48.364;16.022;2023-04-15T03:28:51;2.23;;;0.80;;
7813;SDS011;3952;48.364;16.022;2023-04-15T03:31:18;0.50;;;0.50;;
7813;SDS011;3952;48.364;16.022;2023-04-15T03:33:45;0.80;;;0.80;;
7813;SDS011;3952;48.364;16.022;2023-04-15T03:36:13;0.60;;;0.60;;
7813;SDS011;3952;48.364;16.022;2023-04-15T03:38:40;0.80;;;0.80;;
7813;SDS011;3952;48.364;16.022;2023-04-15T03:41:09;0.70;;;0.70;;
7813;SDS011;3952;48.364;16.022;2023-04-15T03:43:37;1.00;;;1.00;;
7813;SDS011;3952;48.364;16.022;2023-04-15T03:46:04;1.00;;;1.00;;
7813;SDS011;3952;48.364;16.022;2023-04-15T03:48:31;1.47;;;1.37;;
7813;SDS011;3952;48.364;16.022;2023-04-15T03:50:58;1.30;;;1.30;;
7813;SDS011;3952;48.364;16.022;2023-04-15T03:53:26;1.30;;;1.30;;
7813;SDS011;3952;48.364;16.022;2023-04-15T03:55:54;1.40;;;1.40;;
7813;SDS011;3952;48.364;16.022;2023-04-15T03:58:22;1.80;;;1.70;;
7813;SDS011;3952;48.364;16.022;2023-04-15T04:00:49;1.70;;;1.60;;
7813;SDS011;3952;48.364;16.022;2023-04-15T04:03:16;1.70;;;1.60;;
7813;SDS011;3952;48.364;16.022;2023-04-15T04:05:46;1.40;;;1.30;;
7813;SDS011;3952;48.364;16.022;2023-04-15T04:08:13;1.33;;;1.33;;
7813;SDS011;3952;48.364;16.022;2023-04-15T04:10:41;1.50;;;1.50;;
7813;SDS011;3952;48.364;16.022;2023-04-15T04:13:10;1.30;;;1.30;;
7813;SDS011;3952;48.364;16.022;2023-04-15T04:15:37;1.30;;;1.30;;
7813;SDS011;3952;48.364;16.022;2023-04-15T04:18:05;1.23;;;1.23;;
7813;SDS011;3952;48.364;16.022;2023-04-15T04:20:32;1.27;;;1.27;;
7813;SDS011;3952;48.364;16.022;2023-04-15T04:23:00;1.17;;;1.17;;
7813;SDS011;3952;48.364;16.022;2023-04-15T04:25:27;1.30;;;1.30;;
7813;SDS011;3952;48.364;16.022;2023-04-15T04:27:54;1.40;;;1.40;;
7813;SDS011;3952;48.364;16.022;2023-04-15T04:30:23;1.50;;;1.50;;
7813;SDS011;3952;48.364;16.022;2023-04-15T04:32:50;1.03;;;1.03;;
7813;SDS011;3952;48.364;16.022;2023-04-15T04:35:17;1.30;;;1.30;;
7813;SDS011;3952;48.364;16.022;2023-04-15T04:37:46;1.40;;;1.40;;
7813;SDS011;3952;48.364;16.022;2023-04-15T04:40:13;1.27;;;1.27;;
7813;SDS011;3952;48.364;16.022;2023-04-15T04:42:49;1.23;;;1.23;;
7813;SDS011;3952;48.364;16.022;2023-04-15T04:45:17;1.30;;;1.30;;
7813;SDS011;3952;48.364;16.022;2023-04-15T04:47:56;1.47;;;1.43;;
7813;SDS011;3952;48.364;16.022;2023-04-15T04:50:23;1.47;;;1.40;;
7813;SDS011;3952;48.364;16.022;2023-04-15T04:52:51;1.30;;;1.20;;
7813;SDS011;3952;48.364;16.022;2023-04-15T04:55:18;1.27;;;1.27;;
7813;SDS011;3952;48.364;16.022;2023-04-15T04:57:46;1.00;;;1.00;;
7813;SDS011;3952;48.364;16.022;2023-04-15T05:00:16;1.47;;;1.37;;
7813;SDS011;3952;48.364;16.022;2023-04-15T05:02:51;1.20;;;1.20;;
7813;SDS011;3952;48.364;16.022;2023-04-15T05:05:18;1.10;;;1.10;;
7813;SDS011;3952;48.364;16.022;2023-04-15T05:07:46;1.30;;;1.20;;
7813;SDS011;3952;48.364;16.022;2023-04-15T05:10:14;1.60;;;1.60;;
7813;SDS011;3952;48.364;16.022;2023-04-15T05:12:42;1.30;;;1.30;;
7813;SDS011;3952;48.364;16.022;2023-04-15T05:15:10;1.60;;;1.50;;
7813;SDS011;3952;48.364;16.022;2023-04-15T05:17:37;1.30;;;1.20;;
7813;SDS011;3952;48.364;16.022;2023-04-15T05:20:09;1.17;;;1.17;;
7813;SDS011;3952;48.364;16.022;2023-04-15T05:22:37;1.40;;;1.40;;
7813;SDS011;3952;48.364;16.022;2023-04-15T05:25:08;3.07;;;1.50;;
7813;SDS011;3952;48.364;16.022;2023-04-15T05:27:43;1.40;;;1.40;;
7813;SDS011;3952;48.364;16.022;2023-04-15T05:30:10;1.30;;;1.30;;
7813;SDS011;3952;48.364;16.022;2023-04-15T05:32:38;1.00;;;1.00;;
7813;SDS011;3952;48.364;16.022;2023-04-15T05:35:07;1.10;;;1.10;;
7813;SDS011;3952;48.364;16.022;2023-04-15T05:37:36;1.30;;;1.30;;
7813;SDS011;3952;48.364;16.022;2023-04-15T05:40:04;1.30;;;1.30;;
7813;SDS011;3952;48.364;16.022;2023-04-15T05:42:32;1.03;;;1.03;;
7813;SDS011;3952;48.364;16.022;2023-04-15T05:45:00;1.77;;;1.23;;
7813;SDS011;3952;48.364;16.022;2023-04-15T05:47:29;0.90;;;0.90;;
7813;SDS011;3952;48.364;16.022;2023-04-15T05:49:56;1.10;;;1.10;;
7813;SDS011;3952;48.364;16.022;2023-04-15T05:52:25;1.50;;;1.50;;
7813;SDS011;3952;48.364;16.022;2023-04-15T05:54:52;2.00;;;1.90;;
7813;SDS011;3952;48.364;16.022;2023-04-15T05:57:20;1.90;;;1.80;;
7813;SDS011;3952;48.364;16.022;2023-04-15T05:59:47;1.30;;;1.30;;
7813;SDS011;3952;48.364;16.022;2023-04-15T06:02:16;1.67;;;1.57;;
7813;SDS011;3952;48.364;16.022;2023-04-15T06:04:43;1.20;;;1.20;;
7813;SDS011;3952;48.364;16.022;2023-04-15T06:07:11;1.10;;;1.10;;
7813;SDS011;3952;48.364;16.022;2023-04-15T06:09:40;2.17;;;2.07;;
7813;SDS011;3952;48.364;16.022;2023-04-15T06:12:07;1.27;;;1.27;;
7813;SDS011;3952;48.364;16.022;2023-04-15T06:14:36;2.57;;;2.47;;
7813;SDS011;3952;48.364;16.022;2023-04-15T06:17:10;2.50;;;2.40;;
7813;SDS011;3952;48.364;16.022;2023-04-15T06:19:44;1.13;;;1.13;;
7813;SDS011;3952;48.364;16.022;2023-04-15T06:22:15;1.10;;;1.10;;
7813;SDS011;3952;48.364;16.022;2023-04-15T06:24:47;1.83;;;1.20;;
7813;SDS011;3952;48.364;16.022;2023-04-15T06:27:15;0.80;;;0.80;;
7813;SDS011;3952;48.364;16.022;2023-04-15T06:29:46;1.00;;;1.00;;
7813;SDS011;3952;48.364;16.022;2023-04-15T06:32:14;1.13;;;1.13;;
7813;SDS011;3952;48.364;16.022;2023-04-15T06:34:41;1.10;;;1.10;;
7813;SDS011;3952;48.364;16.022;2023-04-15T06:37:10;1.60;;;1.30;;
7813;SDS011;3952;48.364;16.022;2023-04-15T06:39:40;1.27;;;1.27;;
7813;SDS011;3952;48.364;16.022;2023-04-15T06:42:10;0.97;;;0.97;;
7813;SDS011;3952;48.364;16.022;2023-04-15T06:44:37;1.43;;;1.10;;
7813;SDS011;3952;48.364;16.022;2023-04-15T06:47:05;1.00;;;1.00;;
7813;SDS011;3952;48.364;16.022;2023-04-15T06:49:33;1.10;;;1.10;;
7813;SDS011;3952;48.364;16.022;2023-04-15T06:52:00;1.37;;;1.27;;
7813;SDS011;3952;48.364;16.022;2023-04-15T06:54:29;1.17;;;1.17;;
7813;SDS011;3952;48.364;16.022;2023-04-15T06:56:56;1.67;;;1.13;;
7813;SDS011;3952;48.364;16.022;2023-04-15T06:59:27;1.20;;;1.10;;
7813;SDS011;3952;48.364;16.022;2023-04-15T07:01:54;1.83;;;1.20;;
7813;SDS011;3952;48.364;16.022;2023-04-15T07:04:23;1.20;;;1.20;;
7813;SDS011;3952;48.364;16.022;2023-04-15T07:06:52;1.47;;;1.37;;
7813;SDS011;3952;48.364;16.022;2023-04-15T07:09:23;1.20;;;1.20;;
7813;SDS011;3952;48.364;16.022;2023-04-15T07:11:50;1.90;;;1.80;;
7813;SDS011;3952;48.364;16.022;2023-04-15T07:14:18;2.20;;;1.27;;
7813;SDS011;3952;48.364;16.022;2023-04-15T07:16:47;1.80;;;1.70;;
7813;SDS011;3952;48.364;16.022;2023-04-15T07:19:14;1.97;;;1.87;;
7813;SDS011;3952;48.364;16.022;2023-04-15T07:21:41;2.37;;;2.27;;
7813;SDS011;3952;48.364;16.022;2023-04-15T07:24:09;2.80;;;2.60;;
7813;SDS011;3952;48.364;16.022;2023-04-15T07:26:41;1.87;;;1.77;;
7813;SDS011;3952;48.364;16.022;2023-04-15T07:29:09;1.97;;;1.77;;
7813;SDS011;3952;48.364;16.022;2023-04-15T07:31:36;2.90;;;2.70;;
7813;SDS011;3952;48.364;16.022;2023-04-15T07:34:07;1.90;;;1.80;;
7813;SDS011;3952;48.364;16.022;2023-04-15T07:36:34;2.03;;;1.93;;
7813;SDS011;3952;48.364;16.022;2023-04-15T07:39:01;1.40;;;1.30;;
7813;SDS011;3952;48.364;16.022;2023-04-15T07:41:30;0.50;;;0.50;;
7813;SDS011;3952;48.364;16.022;2023-04-15T07:43:57;0.30;;;0.30;;
7813;SDS011;3952;48.364;16.022;2023-04-15T07:46:24;0.40;;;0.40;;
7813;SDS011;3952;48.364;16.022;2023-04-15T07:48:52;0.20;;;0.20;;
7813;SDS011;3952;48.364;16.022;2023-04-15T07:51:21;0.50;;;0.40;;
7813;SDS011;3952;48.364;16.022;2023-04-15T07:53:48;0.70;;;0.70;;
7813;SDS011;3952;48.364;16.022;2023-04-15T07:56:16;0.40;;;0.40;;
7813;SDS011;3952;48.364;16.022;2023-04-15T07:58:46;0.37;;;0.37;;
7813;SDS011;3952;48.364;16.022;2023-04-15T08:01:13;0.40;;;0.40;;
7813;SDS011;3952;48.364;16.022;2023-04-15T08:03:41;0.40;;;0.40;;
7813;SDS011;3952;48.364;16.022;2023-04-15T08:06:08;0.60;;;0.60;;
7813;SDS011;3952;48.364;16.022;2023-04-15T08:08:38;0.50;;;0.50;;
7813;SDS011;3952;48.364;16.022;2023-04-15T08:11:06;0.40;;;0.40;;
7813;SDS011;3952;48.364;16.022;2023-04-15T08:13:33;0.50;;;0.50;;
7813;SDS011;3952;48.364;16.022;2023-04-15T08:16:13;0.67;;;0.67;;
7813;SDS011;3952;48.364;16.022;2023-04-15T08:18:45;0.50;;;0.50;;
7813;SDS011;3952;48.364;16.022;2023-04-15T08:21:13;0.60;;;0.60;;
7813;SDS011;3952;48.364;16.022;2023-04-15T08:23:43;0.70;;;0.70;;
7813;SDS011;3952;48.364;16.022;2023-04-15T08:26:17;0.50;;;0.50;;
7813;SDS011;3952;48.364;16.022;2023-04-15T08:28:46;1.57;;;1.47;;
7813;SDS011;3952;48.364;16.022;2023-04-15T08:31:14;0.43;;;0.43;;
7813;SDS011;3952;48.364;16.022;2023-04-15T08:33:42;0.57;;;0.57;;
7813;SDS011;3952;48.364;16.022;2023-04-15T08:36:09;1.23;;;0.70;;
7813;SDS011;3952;48.364;16.022;2023-04-15T08:38:38;0.60;;;0.60;;
7813;SDS011;3952;48.364;16.022;2023-04-15T08:41:10;0.40;;;0.40;;
7813;SDS011;3952;48.364;16.022;2023-04-15T08:43:43;0.70;;;0.70;;
7813;SDS011;3952;48.364;16.022;2023-04-15T08:46:17;0.70;;;0.60;;
7813;SDS011;3952;48.364;16.022;2023-04-15T08:48:46;0.77;;;0.77;;
7813;SDS011;3952;48.364;16.022;2023-04-15T08:51:14;0.90;;;0.90;;
7813;SDS011;3952;48.364;16.022;2023-04-15T08:53:43;0.90;;;0.90;;
7813;SDS011;3952;48.364;16.022;2023-04-15T08:56:14;0.77;;;0.77;;
7813;SDS011;3952;48.364;16.022;2023-04-15T08:58:42;0.87;;;0.87;;
7813;SDS011;3952;48.364;16.022;2023-04-15T09:01:11;0.70;;;0.70;;
7813;SDS011;3952;48.364;16.022;2023-04-15T09:03:38;0.70;;;0.70;;
7813;SDS011;3952;48.364;16.022;2023-04-15T09:06:07;0.67;;;0.67;;
7813;SDS011;3952;48.364;16.022;2023-04-15T09:08:35;0.80;;;0.80;;
7813;SDS011;3952;48.364;16.022;2023-04-15T09:11:02;0.80;;;0.80;;
7813;SDS011;3952;48.364;16.022;2023-04-15T09:13:31;0.90;;;0.90;;
7813;SDS011;3952;48.364;16.022;2023-04-15T09:16:00;0.83;;;0.83;;
7813;SDS011;3952;48.364;16.022;2023-04-15T09:18:28;0.80;;;0.80;;
7813;SDS011;3952;48.364;16.022;2023-04-15T09:21:02;1.07;;;1.07;;
7813;SDS011;3952;48.364;16.022;2023-04-15T09:23:33;1.33;;;0.97;;
7813;SDS011;3952;48.364;16.022;2023-04-15T09:26:00;1.40;;;1.30;;
7813;SDS011;3952;48.364;16.022;2023-04-15T09:28:28;1.37;;;1.27;;
7813;SDS011;3952;48.364;16.022;2023-04-15T09:30:57;1.20;;;1.20;;
7813;SDS011;3952;48.364;16.022;2023-04-15T09:33:25;0.87;;;0.87;;
7813;SDS011;3952;48.364;16.022;2023-04-15T09:35:57;0.80;;;0.80;;
7813;SDS011;3952;48.364;16.022;2023-04-15T09:38:26;1.80;;;1.10;;
7813;SDS011;3952;48.364;16.022;2023-04-15T09:40:55;0.80;;;0.80;;
7813;SDS011;3952;48.364;16.022;2023-04-15T09:43:25;0.80;;;0.80;;
7813;SDS011;3952;48.364;16.022;2023-04-15T09:46:04;1.40;;;1.30;;
7813;SDS011;3952;48.364;16.022;2023-04-15T09:48:31;1.00;;;1.00;;
7813;SDS011;3952;48.364;16.022;2023-04-15T09:50:59;1.13;;;1.13;;
7813;SDS011;3952;48.364;16.022;2023-04-15T09:53:27;1.00;;;1.00;;
7813;SDS011;3952;48.364;16.022;2023-04-15T09:55:55;1.20;;;1.20;;
7813;SDS011;3952;48.364;16.022;2023-04-15T09:58:25;1.13;;;1.13;;
7813;SDS011;3952;48.364;16.022;2023-04-15T10:00:53;1.73;;;1.63;;
7813;SDS011;3952;48.364;16.022;2023-04-15T10:03:23;1.30;;;1.30;;
7813;SDS011;3952;48.364;16.022;2023-04-15T10:05:53;1.60;;;1.60;;
7813;SDS011;3952;48.364;16.022;2023-04-15T10:08:22;1.30;;;1.20;;
7813;SDS011;3952;48.364;16.022;2023-04-15T10:10:50;1.40;;;1.30;;
7813;SDS011;3952;48.364;16.022;2023-04-15T10:13:19;1.40;;;1.40;;
7813;SDS011;3952;48.364;16.022;2023-04-15T10:15:49;1.17;;;1.17;;
7813;SDS011;3952;48.364;16.022;2023-04-15T10:18:18;1.37;;;1.37;;
7813;SDS011;3952;48.364;16.022;2023-04-15T10:20:48;1.10;;;1.10;;
7813;SDS011;3952;48.364;16.022;2023-04-15T10:23:16;1.20;;;1.20;;
7813;SDS011;3952;48.364;16.022;2023-04-15T10:25:45;1.27;;;1.27;;
7813;SDS011;3952;48.364;16.022;2023-04-15T10:28:12;1.07;;;1.07;;
7813;SDS011;3952;48.364;16.022;2023-04-15T10:30:41;1.20;;;1.20;;
7813;SDS011;3952;48.364;16.022;2023-04-15T10:33:09;1.07;;;1.00;;
7813;SDS011;3952;48.364;16.022;2023-04-15T10:35:37;1.20;;;1.20;;
7813;SDS011;3952;48.364;16.022;2023-04-15T10:41:16;1.10;;;1.10;;
7813;SDS011;3952;48.364;16.022;2023-04-15T10:43:46;1.10;;;1.10;;
7813;SDS011;3952;48.364;16.022;2023-04-15T10:46:18;0.93;;;0.93;;
7813;SDS011;3952;48.364;16.022;2023-04-15T10:48:49;1.03;;;1.03;;
7813;SDS011;3952;48.364;16.022;2023-04-15T10:51:25;1.10;;;1.10;;
7813;SDS011;3952;48.364;16.022;2023-04-15T10:53:56;1.30;;;1.20;;
7813;SDS011;3952;48.364;16.022;2023-04-15T10:56:25;1.47;;;1.00;;
7813;SDS011;3952;48.364;16.022;2023-04-15T10:58:54;1.17;;;1.17;;
7813;SDS011;3952;48.364;16.022;2023-04-15T11:01:26;1.20;;;1.20;;
7813;SDS011;3952;48.364;16.022;2023-04-15T11:07:32;0.87;;;0.87;;
7813;SDS011;3952;48.364;16.022;2023-04-15T11:10:01;0.90;;;0.90;;
7813;SDS011;3952;48.364;16.022;2023-04-15T11:12:33;1.23;;;1.23;;
7813;SDS011;3952;48.364;16.022;2023-04-15T11:17:54;1.00;;;1.00;;
7813;SDS011;3952;48.364;16.022;2023-04-15T11:20:21;0.93;;;0.93;;
7813;SDS011;3952;48.364;16.022;2023-04-15T11:22:49;1.00;;;1.00;;
7813;SDS011;3952;48.364;16.022;2023-04-15T11:25:24;1.00;;;1.00;;
7813;SDS011;3952;48.364;16.022;2023-04-15T11:27:53;1.10;;;1.10;;
7813;SDS011;3952;48.364;16.022;2023-04-15T11:30:21;1.90;;;1.13;;
7813;SDS011;3952;48.364;16.022;2023-04-15T11:32:50;1.27;;;1.23;;
7813;SDS011;3952;48.364;16.022;2023-04-15T11:35:18;0.90;;;0.90;;
7813;SDS011;3952;48.364;16.022;2023-04-15T11:37:47;1.07;;;1.00;;
7813;SDS011;3952;48.364;16.022;2023-04-15T11:40:14;1.07;;;1.07;;
7813;SDS011;3952;48.364;16.022;2023-04-15T11:42:44;1.20;;;1.20;;
7813;SDS011;3952;48.364;16.022;2023-04-15T11:45:12;1.10;;;1.10;;
7813;SDS011;3952;48.364;16.022;2023-04-15T11:47:41;0.83;;;0.83;;
7813;SDS011;3952;48.364;16.022;2023-04-15T11:50:14;1.10;;;1.10;;
7813;SDS011;3952;48.364;16.022;2023-04-15T11:52:51;1.30;;;1.30;;
7813;SDS011;3952;48.364;16.022;2023-04-15T11:55:19;0.83;;;0.83;;
7813;SDS011;3952;48.364;16.022;2023-04-15T11:57:48;1.10;;;1.10;;
7813;SDS011;3952;48.364;16.022;2023-04-15T12:00:16;1.13;;;1.13;;
7813;SDS011;3952;48.364;16.022;2023-04-15T12:02:45;0.87;;;0.87;;
7813;SDS011;3952;48.364;16.022;2023-04-15T12:05:12;1.10;;;1.10;;
7813;SDS011;3952;48.364;16.022;2023-04-15T12:07:58;1.43;;;1.20;;
7813;SDS011;3952;48.364;16.022;2023-04-15T12:10:26;1.10;;;1.10;;
7813;SDS011;3952;48.364;16.022;2023-04-15T12:12:54;1.57;;;1.47;;
7813;SDS011;3952;48.364;16.022;2023-04-15T12:15:21;1.00;;;1.00;;
7813;SDS011;3952;48.364;16.022;2023-04-15T12:17:52;1.30;;;1.30;;
7813;SDS011;3952;48.364;16.022;2023-04-15T12:20:23;0.90;;;0.90;;
7813;SDS011;3952;48.364;16.022;2023-04-15T12:22:51;1.43;;;1.40;;
7813;SDS011;3952;48.364;16.022;2023-04-15T12:25:18;1.50;;;1.40;;
7813;SDS011;3952;48.364;16.022;2023-04-15T12:27:59;1.30;;;1.30;;
7813;SDS011;3952;48.364;16.022;2023-04-15T12:30:27;1.40;;;1.30;;
7813;SDS011;3952;48.364;16.022;2023-04-15T12:32:54;1.60;;;1.50;;
7813;SDS011;3952;48.364;16.022;2023-04-15T12:35:23;1.77;;;1.50;;
7813;SDS011;3952;48.364;16.022;2023-04-15T12:37:51;1.50;;;1.50;;
7813;SDS011;3952;48.364;16.022;2023-04-15T12:40:18;1.40;;;1.40;;
7813;SDS011;3952;48.364;16.022;2023-04-15T12:42:46;1.80;;;1.67;;
7813;SDS011;3952;48.364;16.022;2023-04-15T12:45:14;1.80;;;1.70;;
7813;SDS011;3952;48.364;16.022;2023-04-15T12:47:41;3.87;;;1.70;;
7813;SDS011;3952;48.364;16.022;2023-04-15T12:50:09;1.70;;;1.60;;
7813;SDS011;3952;48.364;16.022;2023-04-15T12:52:36;1.77;;;1.60;;
7813;SDS011;3952;48.364;16.022;2023-04-15T12:55:04;1.90;;;1.77;;
7813;SDS011;3952;48.364;16.022;2023-04-15T12:57:31;1.73;;;1.60;;
7813;SDS011;3952;48.364;16.022;2023-04-15T12:59:59;1.93;;;1.83;;
7813;SDS011;3952;48.364;16.022;2023-04-15T13:02:27;1.60;;;1.60;;
7813;SDS011;3952;48.364;16.022;2023-04-15T13:04:55;2.00;;;1.90;;
7813;SDS011;3952;48.364;16.022;2023-04-15T13:07:22;1.47;;;1.47;;
7813;SDS011;3952;48.364;16.022;2023-04-15T13:09:49;1.60;;;1.60;;
7813;SDS011;3952;48.364;16.022;2023-04-15T13:12:16;1.80;;;1.70;;
7813;SDS011;3952;48.364;16.022;2023-04-15T13:14:44;2.50;;;1.70;;
7813;SDS011;3952;48.364;16.022;2023-04-15T13:17:11;1.80;;;1.70;;
7813;SDS011;3952;48.364;16.022;2023-04-15T13:19:39;1.40;;;1.40;;
7813;SDS011;3952;48.364;16.022;2023-04-15T13:22:06;1.70;;;1.60;;
7813;SDS011;3952;48.364;16.022;2023-04-15T13:24:34;1.50;;;1.40;;
7813;SDS011;3952;48.364;16.022;2023-04-15T13:27:01;1.20;;;1.20;;
7813;SDS011;3952;48.364;16.022;2023-04-15T13:29:28;2.10;;;1.07;;
7813;SDS011;3952;48.364;16.022;2023-04-15T13:31:56;1.00;;;1.00;;
7813;SDS011;3952;48.364;16.022;2023-04-15T13:34:25;1.10;;;1.10;;
7813;SDS011;3952;48.364;16.022;2023-04-15T13:36:54;1.07;;;1.07;;
7813;SDS011;3952;48.364;16.022;2023-04-15T13:39:21;1.27;;;1.27;;
7813;SDS011;3952;48.364;16.022;2023-04-15T13:41:48;1.00;;;1.00;;
7813;SDS011;3952;48.364;16.022;2023-04-15T13:44:15;1.13;;;1.13;;
7813;SDS011;3952;48.364;16.022;2023-04-15T13:46:42;1.10;;;1.10;;
7813;SDS011;3952;48.364;16.022;2023-04-15T13:49:09;1.00;;;1.00;;
7813;SDS011;3952;48.364;16.022;2023-04-15T13:51:37;1.10;;;1.10;;
7813;SDS011;3952;48.364;16.022;2023-04-15T13:54:06;1.20;;;1.20;;
7813;SDS011;3952;48.364;16.022;2023-04-15T13:56:33;0.83;;;0.83;;
7813;SDS011;3952;48.364;16.022;2023-04-15T13:59:01;1.10;;;1.10;;
7813;SDS011;3952;48.364;16.022;2023-04-15T14:01:28;1.30;;;1.30;;
7813;SDS011;3952;48.364;16.022;2023-04-15T14:03:55;1.10;;;1.10;;
7813;SDS011;3952;48.364;16.022;2023-04-15T14:06:22;1.10;;;1.10;;
7813;SDS011;3952;48.364;16.022;2023-04-15T14:08:51;1.20;;;1.20;;
7813;SDS011;3952;48.364;16.022;2023-04-15T14:11:20;1.20;;;1.20;;
7813;SDS011;3952;48.364;16.022;2023-04-15T14:13:47;1.97;;;1.40;;
7813;SDS011;3952;48.364;16.022;2023-04-15T14:16:14;1.20;;;1.20;;
7813;SDS011;3952;48.364;16.022;2023-04-15T14:18:41;1.20;;;1.20;;
7813;SDS011;3952;48.364;16.022;2023-04-15T14:21:10;0.80;;;0.80;;
7813;SDS011;3952;48.364;16.022;2023-04-15T14:23:37;1.60;;;1.50;;
7813;SDS011;3952;48.364;16.022;2023-04-15T14:26:04;1.60;;;1.60;;
7813;SDS011;3952;48.364;16.022;2023-04-15T14:28:33;1.63;;;1.63;;
7813;SDS011;3952;48.364;16.022;2023-04-15T14:31:02;1.60;;;1.60;;
7813;SDS011;3952;48.364;16.022;2023-04-15T14:33:29;1.60;;;1.50;;
7813;SDS011;3952;48.364;16.022;2023-04-15T14:35:57;2.13;;;2.00;;
7813;SDS011;3952;48.364;16.022;2023-04-15T14:38:24;1.77;;;1.73;;
7813;SDS011;3952;48.364;16.022;2023-04-15T14:40:51;2.10;;;2.00;;
7813;SDS011;3952;48.364;16.022;2023-04-15T14:43:19;1.97;;;1.87;;
7813;SDS011;3952;48.364;16.022;2023-04-15T14:45:47;1.70;;;1.70;;
7813;SDS011;3952;48.364;16.022;2023-04-15T14:48:16;1.90;;;1.80;;
7813;SDS011;3952;48.364;16.022;2023-04-15T14:50:43;1.60;;;1.60;;
7813;SDS011;3952;48.364;16.022;2023-04-15T14:53:10;1.60;;;1.60;;
7813;SDS011;3952;48.364;16.022;2023-04-15T14:55:37;1.90;;;1.80;;
7813;SDS011;3952;48.364;16.022;2023-04-15T14:58:05;2.10;;;2.00;;
7813;SDS011;3952;48.364;16.022;2023-04-15T15:00:33;2.00;;;1.90;;
7813;SDS011;3952;48.364;16.022;2023-04-15T15:03:04;2.10;;;2.00;;
7813;SDS011;3952;48.364;16.022;2023-04-15T15:05:36;1.93;;;1.87;;
7813;SDS011;3952;48.364;16.022;2023-04-15T15:08:04;2.60;;;2.50;;
7813;SDS011;3952;48.364;16.022;2023-04-15T15:10:32;2.37;;;2.27;;
7813;SDS011;3952;48.364;16.022;2023-04-15T15:12:59;2.50;;;2.30;;
7813;SDS011;3952;48.364;16.022;2023-04-15T15:15:27;2.53;;;2.43;;
7813;SDS011;3952;48.364;16.022;2023-04-15T15:17:55;1.80;;;1.80;;